sensor_id;sensor_type;location;lat;lon;timestamp;pressure;altitude;pressure_sealevel;temperature;humidity
17260;BME280;8746;49.230;9.220;2023-05-12T00:01:56;99659.13;;;11.00;100.00
17260;BME280;8746;49.230;9.220;2023-05-12T00:04:21;99658.13;;;11.03;100.00
17260;BME280;8746;49.230;9.220;2023-05-12T00:06:47;99658.06;;;11.04;100.00
17260;BME280;8746;49.230;9.220;2023-05-12T00:09:12;99657.22;;;11.04;100.00
17260;BME280;8746;49.230;9.220;2023-05-12T00:11:37;99649.72;;;10.95;100.00
17260;BME280;8746;49.230;9.220;2023-05-12T00:14:03;99650.78;;;10.90;100.00
17260;BME280;8746;49.230;9.220;2023-05-12T00:16:28;99651.78;;;10.88;100.00
17260;BME280;8746;49.230;9.220;2023-05-12T00:18:54;99640.22;;;10.90;100.00
17260;BME280;8746;49.230;9.220;2023-05-12T00:21:19;99639.81;;;11.00;100.00
17260;BME280;8746;49.230;9.220;2023-05-12T00:23:44;99638.81;;;11.02;100.00
17260;BME280;8746;49.230;9.220;2023-05-12T00:26:10;99636.94;;;11.04;100.00
17260;BME280;8746;49.230;9.220;2023-05-12T00:28:35;99638.81;;;11.02;100.00
17260;BME280;8746;49.230;9.220;2023-05-12T00:31:01;99634.59;;;10.98;100.00
17260;BME280;8746;49.230;9.220;2023-05-12T00:33:30;99634.59;;;10.98;100.00
17260;BME280;8746;49.230;9.220;2023-05-12T00:35:56;99633.81;;;10.96;100.00
17260;BME280;8746;49.230;9.220;2023-05-12T00:38:21;99631.47;;;10.90;100.00
17260;BME280;8746;49.230;9.220;2023-05-12T00:40:46;99631.38;;;10.92;100.00
17260;BME280;8746;49.230;9.220;2023-05-12T00:43:12;99633.31;;;10.88;100.00
17260;BME280;8746;49.230;9.220;2023-05-12T00:45:37;99632.41;;;10.89;100.00
17260;BME280;8746;49.230;9.220;2023-05-12T00:48:03;99636.06;;;10.85;100.00
17260;BME280;8746;49.230;9.220;2023-05-12T00:50:30;99631.53;;;10.88;100.00
17260;BME280;8746;49.230;9.220;2023-05-12T00:52:55;99624.47;;;10.89;100.00
17260;BME280;8746;49.230;9.220;2023-05-12T00:55:24;99636.66;;;10.92;100.00
17260;BME280;8746;49.230;9.220;2023-05-12T00:57:49;99632.41;;;10.89;100.00
17260;BME280;8746;49.230;9.220;2023-05-12T01:00:15;99626.03;;;10.93;100.00
17260;BME280;8746;49.230;9.220;2023-05-12T01:02:40;99628.81;;;10.90;100.00
17260;BME280;8746;49.230;9.220;2023-05-12T01:05:07;99626.19;;;10.90;100.00
17260;BME280;8746;49.230;9.220;2023-05-12T01:07:35;99628.66;;;10.93;100.00
17260;BME280;8746;49.230;9.220;2023-05-12T01:10:00;99628.66;;;10.93;100.00
17260;BME280;8746;49.230;9.220;2023-05-12T01:12:26;99630.59;;;10.89;100.00
17260;BME280;8746;49.230;9.220;2023-05-12T01:14:53;99627.81;;;10.93;100.00
17260;BME280;8746;49.230;9.220;2023-05-12T01:17:21;99625.09;;;10.94;100.00
17260;BME280;8746;49.230;9.220;2023-05-12T01:19:49;99625.09;;;10.94;100.00
17260;BME280;8746;49.230;9.220;2023-05-12T01:22:16;99619.91;;;10.93;100.00
17260;BME280;8746;49.230;9.220;2023-05-12T01:24:54;99620.84;;;10.92;100.00
17260;BME280;8746;49.230;9.220;2023-05-12T01:27:22;99614.63;;;10.93;100.00
17260;BME280;8746;49.230;9.220;2023-05-12T01:29:50;99618.81;;;10.97;100.00
17260;BME280;8746;49.230;9.220;2023-05-12T01:32:17;99621.38;;;10.98;100.00
17260;BME280;8746;49.230;9.220;2023-05-12T01:34:44;99620.63;;;10.96;100.00
17260;BME280;8746;49.230;9.220;2023-05-12T01:37:10;99624.94;;;10.97;100.00
17260;BME280;8746;49.230;9.220;2023-05-12T01:39:35;99627.66;;;10.96;100.00
17260;BME280;8746;49.230;9.220;2023-05-12T01:42:02;99633.88;;;10.95;100.00
17260;BME280;8746;49.230;9.220;2023-05-12T01:44:27;99630.38;;;10.94;100.00
17260;BME280;8746;49.230;9.220;2023-05-12T01:46:53;99635.38;;;11.00;100.00
17260;BME280;8746;49.230;9.220;2023-05-12T01:49:18;99633.53;;;11.02;100.00
17260;BME280;8746;49.230;9.220;2023-05-12T01:51:43;99632.38;;;11.08;100.00
17260;BME280;8746;49.230;9.220;2023-05-12T01:54:08;99637.81;;;11.05;100.00
17260;BME280;8746;49.230;9.220;2023-05-12T01:56:34;99635.94;;;10.88;100.00
17260;BME280;8746;49.230;9.220;2023-05-12T01:58:59;99631.59;;;10.87;100.00
17260;BME280;8746;49.230;9.220;2023-05-12T02:01:26;99641.78;;;10.95;100.00
17260;BME280;8746;49.230;9.220;2023-05-12T02:03:55;99640.03;;;10.95;100.00
17260;BME280;8746;49.230;9.220;2023-05-12T02:06:21;99629.25;;;11.00;100.00
17260;BME280;8746;49.230;9.220;2023-05-12T02:08:46;99639.94;;;10.97;100.00
17260;BME280;8746;49.230;9.220;2023-05-12T02:11:12;99636.38;;;10.98;100.00
17260;BME280;8746;49.230;9.220;2023-05-12T02:13:37;99632.75;;;11.00;100.00
17260;BME280;8746;49.230;9.220;2023-05-12T02:16:03;99628.47;;;10.98;100.00
17260;BME280;8746;49.230;9.220;2023-05-12T02:18:28;99628.66;;;10.93;100.00
17260;BME280;8746;49.230;9.220;2023-05-12T02:20:53;99634.38;;;11.03;100.00
17260;BME280;8746;49.230;9.220;2023-05-12T02:23:19;99633.81;;;10.96;100.00
17260;BME280;8746;49.230;9.220;2023-05-12T02:25:44;99638.16;;;10.97;100.00
17260;BME280;8746;49.230;9.220;2023-05-12T02:28:10;99632.09;;;10.95;100.00
17260;BME280;8746;49.230;9.220;2023-05-12T02:30:46;99621.38;;;10.98;100.00
17260;BME280;8746;49.230;9.220;2023-05-12T02:33:13;99619.53;;;11.00;100.00
17260;BME280;8746;49.230;9.220;2023-05-12T02:35:39;99617.41;;;11.09;100.00
17260;BME280;8746;49.230;9.220;2023-05-12T02:38:04;99628.88;;;11.07;100.00
17260;BME280;8746;49.230;9.220;2023-05-12T02:40:30;99622.69;;;11.09;100.00
17260;BME280;8746;49.230;9.220;2023-05-12T02:42:55;99620.66;;;11.14;100.00
17260;BME280;8746;49.230;9.220;2023-05-12T02:45:21;99622.38;;;11.15;100.00
17260;BME280;8746;49.230;9.220;2023-05-12T02:47:46;99631.03;;;10.99;100.00
17260;BME280;8746;49.230;9.220;2023-05-12T02:50:12;99621.25;;;11.01;100.00
17260;BME280;8746;49.230;9.220;2023-05-12T02:52:38;99610.53;;;11.04;100.00
17260;BME280;8746;49.230;9.220;2023-05-12T02:55:03;99617.19;;;10.94;100.00
17260;BME280;8746;49.230;9.220;2023-05-12T02:57:28;99615.34;;;10.96;100.00
17260;BME280;8746;49.230;9.220;2023-05-12T03:00:02;99608.97;;;11.00;100.00
17260;BME280;8746;49.230;9.220;2023-05-12T03:02:34;99609.69;;;11.04;100.00
17260;BME280;8746;49.230;9.220;2023-05-12T03:05:00;99619.38;;;11.03;100.00
17260;BME280;8746;49.230;9.220;2023-05-12T03:07:26;99622.97;;;11.02;100.00
17260;BME280;8746;49.230;9.220;2023-05-12T03:09:51;99616.59;;;11.06;100.00
17260;BME280;8746;49.230;9.220;2023-05-12T03:12:16;99616.69;;;11.05;100.00
17260;BME280;8746;49.230;9.220;2023-05-12T03:14:42;99616.59;;;11.06;100.00
17260;BME280;8746;49.230;9.220;2023-05-12T03:17:07;99622.88;;;11.04;100.00
17260;BME280;8746;49.230;9.220;2023-05-12T03:19:33;99622.97;;;11.02;100.00
17260;BME280;8746;49.230;9.220;2023-05-12T03:21:59;99619.38;;;11.03;100.00
17260;BME280;8746;49.230;9.220;2023-05-12T03:24:25;99613.97;;;11.06;100.00
17260;BME280;8746;49.230;9.220;2023-05-12T03:26:50;99622.00;;;11.03;100.00
17260;BME280;8746;49.230;9.220;2023-05-12T03:29:15;99624.66;;;11.03;100.00
17260;BME280;8746;49.230;9.220;2023-05-12T03:31:41;99613.19;;;11.04;100.00
17260;BME280;8746;49.230;9.220;2023-05-12T03:34:06;99609.78;;;11.02;100.00
17260;BME280;8746;49.230;9.220;2023-05-12T03:36:31;99613.13;;;11.06;100.00
17260;BME280;8746;49.230;9.220;2023-05-12T03:38:57;99620.16;;;11.05;100.00
17260;BME280;8746;49.230;9.220;2023-05-12T03:41:22;99617.41;;;11.09;100.00
17260;BME280;8746;49.230;9.220;2023-05-12T03:43:48;99617.22;;;11.12;100.00
17260;BME280;8746;49.230;9.220;2023-05-12T03:46:13;99615.53;;;11.11;100.00
17260;BME280;8746;49.230;9.220;2023-05-12T03:48:39;99617.09;;;11.15;100.00
17260;BME280;8746;49.230;9.220;2023-05-12T03:51:04;99617.09;;;11.15;100.00
17260;BME280;8746;49.230;9.220;2023-05-12T03:53:29;99619.53;;;11.19;100.00
17260;BME280;8746;49.230;9.220;2023-05-12T03:55:55;99616.09;;;11.17;100.00
17260;BME280;8746;49.230;9.220;2023-05-12T03:58:23;99609.41;;;11.10;100.00
17260;BME280;8746;49.230;9.220;2023-05-12T04:00:49;99604.25;;;11.07;100.00
17260;BME280;8746;49.230;9.220;2023-05-12T04:03:17;99611.41;;;11.05;100.00
17260;BME280;8746;49.230;9.220;2023-05-12T04:05:43;99613.97;;;11.06;100.00
17260;BME280;8746;49.230;9.220;2023-05-12T04:08:08;99608.56;;;11.10;100.00
17260;BME280;8746;49.230;9.220;2023-05-12T04:10:40;99609.81;;;11.20;100.00
17260;BME280;8746;49.230;9.220;2023-05-12T04:13:06;99611.03;;;11.13;100.00
17260;BME280;8746;49.230;9.220;2023-05-12T04:15:35;99610.72;;;11.19;100.00
17260;BME280;8746;49.230;9.220;2023-05-12T04:18:01;99611.03;;;11.13;100.00
17260;BME280;8746;49.230;9.220;2023-05-12T04:20:27;99613.66;;;11.13;100.00
17260;BME280;8746;49.230;9.220;2023-05-12T04:22:52;99616.31;;;11.13;100.00
17260;BME280;8746;49.230;9.220;2023-05-12T04:25:17;99615.38;;;11.14;100.00
17260;BME280;8746;49.230;9.220;2023-05-12T04:27:43;99623.94;;;11.19;100.00
17260;BME280;8746;49.230;9.220;2023-05-12T04:30:08;99622.94;;;11.21;100.00
17260;BME280;8746;49.230;9.220;2023-05-12T04:32:33;99622.59;;;11.29;100.00
17260;BME280;8746;49.230;9.220;2023-05-12T04:34:59;99624.44;;;11.27;100.00
17260;BME280;8746;49.230;9.220;2023-05-12T04:37:24;99621.78;;;11.27;100.00
17260;BME280;8746;49.230;9.220;2023-05-12T04:39:50;99620.06;;;11.26;100.00
17260;BME280;8746;49.230;9.220;2023-05-12T04:42:15;99622.63;;;11.28;100.00
17260;BME280;8746;49.230;9.220;2023-05-12T04:44:40;99633.16;;;11.29;100.00
17260;BME280;8746;49.230;9.220;2023-05-12T04:47:06;99627.06;;;11.27;100.00
17260;BME280;8746;49.230;9.220;2023-05-12T04:49:31;99635.22;;;11.22;100.00
17260;BME280;8746;49.230;9.220;2023-05-12T04:51:56;99633.28;;;11.26;100.00
17260;BME280;8746;49.230;9.220;2023-05-12T04:54:22;99641.78;;;11.33;100.00
17260;BME280;8746;49.230;9.220;2023-05-12T04:56:47;99637.81;;;11.42;100.00
17260;BME280;8746;49.230;9.220;2023-05-12T04:59:13;99647.47;;;11.43;100.00
17260;BME280;8746;49.230;9.220;2023-05-12T05:01:41;99645.78;;;11.22;100.00
17260;BME280;8746;49.230;9.220;2023-05-12T05:04:07;99648.50;;;11.21;100.00
17260;BME280;8746;49.230;9.220;2023-05-12T05:06:33;99651.97;;;11.21;100.00
17260;BME280;8746;49.230;9.220;2023-05-12T05:08:58;99649.75;;;11.31;100.00
17260;BME280;8746;49.230;9.220;2023-05-12T05:11:23;99644.94;;;11.22;100.00
17260;BME280;8746;49.230;9.220;2023-05-12T05:13:49;99649.84;;;11.30;100.00
17260;BME280;8746;49.230;9.220;2023-05-12T05:16:14;99641.53;;;11.37;100.00
17260;BME280;8746;49.230;9.220;2023-05-12T05:18:39;99634.47;;;11.38;100.00
17260;BME280;8746;49.230;9.220;2023-05-12T05:21:11;99649.31;;;11.41;100.00
17260;BME280;8746;49.230;9.220;2023-05-12T05:23:38;99647.31;;;11.46;100.00
17260;BME280;8746;49.230;9.220;2023-05-12T05:26:03;99656.94;;;11.47;100.00
17260;BME280;8746;49.230;9.220;2023-05-12T05:28:29;99650.03;;;11.44;100.00
17260;BME280;8746;49.230;9.220;2023-05-12T05:30:55;99649.88;;;11.47;100.00
17260;BME280;8746;49.230;9.220;2023-05-12T05:33:20;99647.69;;;11.38;100.00
17260;BME280;8746;49.230;9.220;2023-05-12T05:35:45;99652.88;;;11.39;100.00
17260;BME280;8746;49.230;9.220;2023-05-12T05:38:11;99647.53;;;11.41;100.00
17260;BME280;8746;49.230;9.220;2023-05-12T05:40:37;99649.75;;;11.31;100.00
17260;BME280;8746;49.230;9.220;2023-05-12T05:43:02;99655.09;;;11.49;100.00
17260;BME280;8746;49.230;9.220;2023-05-12T05:45:28;99665.31;;;11.37;100.00
17260;BME280;8746;49.230;9.220;2023-05-12T05:47:53;99661.91;;;11.35;100.00
17260;BME280;8746;49.230;9.220;2023-05-12T05:50:19;99660.94;;;11.36;100.00
17260;BME280;8746;49.230;9.220;2023-05-12T05:52:44;99655.03;;;11.31;100.00
17260;BME280;8746;49.230;9.220;2023-05-12T05:55:09;99660.19;;;11.34;100.00
17260;BME280;8746;49.230;9.220;2023-05-12T05:57:34;99660.94;;;11.36;100.00
17260;BME280;8746;49.230;9.220;2023-05-12T06:00:00;99665.16;;;11.41;100.00
17260;BME280;8746;49.230;9.220;2023-05-12T06:02:26;99671.59;;;11.35;100.00
17260;BME280;8746;49.230;9.220;2023-05-12T06:04:51;99676.94;;;11.33;100.00
17260;BME280;8746;49.230;9.220;2023-05-12T06:07:16;99678.59;;;11.36;100.00
17260;BME280;8746;49.230;9.220;2023-05-12T06:09:42;99673.34;;;11.53;100.00
17260;BME280;8746;49.230;9.220;2023-05-12T06:12:07;99677.28;;;11.45;100.00
17260;BME280;8746;49.230;9.220;2023-05-12T06:14:33;99672.22;;;11.40;100.00
17260;BME280;8746;49.230;9.220;2023-05-12T06:16:58;99677.88;;;11.32;100.00
17260;BME280;8746;49.230;9.220;2023-05-12T06:19:23;99680.72;;;11.47;100.00
17260;BME280;8746;49.230;9.220;2023-05-12T06:21:49;99684.56;;;11.39;100.00
17260;BME280;8746;49.230;9.220;2023-05-12T06:24:15;99684.88;;;11.33;100.00
17260;BME280;8746;49.230;9.220;2023-05-12T06:26:41;99679.22;;;11.41;100.00
17260;BME280;8746;49.230;9.220;2023-05-12T06:29:06;99688.88;;;11.60;100.00
17260;BME280;8746;49.230;9.220;2023-05-12T06:31:32;99682.94;;;11.56;100.00
17260;BME280;8746;49.230;9.220;2023-05-12T06:33:57;99684.56;;;11.39;100.00
17260;BME280;8746;49.230;9.220;2023-05-12T06:36:23;99682.22;;;11.33;100.00
17260;BME280;8746;49.230;9.220;2023-05-12T06:38:49;99699.34;;;11.44;100.00
17260;BME280;8746;49.230;9.220;2023-05-12T06:41:15;99702.69;;;11.47;100.00
17260;BME280;8746;49.230;9.220;2023-05-12T06:43:40;99694.84;;;11.46;100.00
17260;BME280;8746;49.230;9.220;2023-05-12T06:46:05;99698.41;;;11.45;100.00
17260;BME280;8746;49.230;9.220;2023-05-12T06:48:32;99697.50;;;11.27;100.00
17260;BME280;8746;49.230;9.220;2023-05-12T06:50:58;99696.22;;;11.35;100.00
17260;BME280;8746;49.230;9.220;2023-05-12T06:53:23;99699.22;;;11.47;100.00
17260;BME280;8746;49.230;9.220;2023-05-12T06:55:48;99697.28;;;11.50;100.00
17260;BME280;8746;49.230;9.220;2023-05-12T06:58:15;99697.91;;;11.36;100.00
17260;BME280;8746;49.230;9.220;2023-05-12T07:00:40;99699.84;;;11.52;100.00
17260;BME280;8746;49.230;9.220;2023-05-12T07:03:05;99690.69;;;11.59;100.00
17260;BME280;8746;49.230;9.220;2023-05-12T07:05:34;99687.41;;;11.54;100.00
17260;BME280;8746;49.230;9.220;2023-05-12T07:08:00;99697.22;;;11.69;100.00
17260;BME280;8746;49.230;9.220;2023-05-12T07:10:25;99699.34;;;11.80;100.00
17260;BME280;8746;49.230;9.220;2023-05-12T07:12:50;99690.88;;;11.91;100.00
17260;BME280;8746;49.230;9.220;2023-05-12T07:15:16;99688.84;;;11.79;100.00
17260;BME280;8746;49.230;9.220;2023-05-12T07:17:41;99695.91;;;11.97;100.00
17260;BME280;8746;49.230;9.220;2023-05-12T07:20:07;99688.84;;;12.15;100.00
17260;BME280;8746;49.230;9.220;2023-05-12T07:22:32;99686.09;;;12.34;100.00
17260;BME280;8746;49.230;9.220;2023-05-12T07:24:58;99685.84;;;12.39;100.00
17260;BME280;8746;49.230;9.220;2023-05-12T07:27:23;99690.03;;;12.61;100.00
17260;BME280;8746;49.230;9.220;2023-05-12T07:29:49;99685.59;;;12.61;100.00
17260;BME280;8746;49.230;9.220;2023-05-12T07:32:14;99689.97;;;12.78;100.00
17260;BME280;8746;49.230;9.220;2023-05-12T07:34:40;99688.31;;;12.60;100.00
17260;BME280;8746;49.230;9.220;2023-05-12T07:37:05;99680.03;;;12.99;100.00
17260;BME280;8746;49.230;9.220;2023-05-12T07:39:30;99688.00;;;12.82;100.00
17260;BME280;8746;49.230;9.220;2023-05-12T07:41:57;99687.53;;;12.91;100.00
17260;BME280;8746;49.230;9.220;2023-05-12T07:44:23;99679.03;;;13.18;100.00
17260;BME280;8746;49.230;9.220;2023-05-12T07:46:48;99678.69;;;13.24;100.00
17260;BME280;8746;49.230;9.220;2023-05-12T07:49:13;99677.97;;;12.89;100.00
17260;BME280;8746;49.230;9.220;2023-05-12T07:51:39;99674.56;;;13.19;100.00
17260;BME280;8746;49.230;9.220;2023-05-12T07:54:04;99674.84;;;13.62;100.00
17260;BME280;8746;49.230;9.220;2023-05-12T07:56:31;99668.91;;;13.25;100.00
17260;BME280;8746;49.230;9.220;2023-05-12T07:58:57;99677.31;;;13.17;100.00
17260;BME280;8746;49.230;9.220;2023-05-12T08:01:22;99678.91;;;13.20;100.00
17260;BME280;8746;49.230;9.220;2023-05-12T08:03:48;99670.03;;;13.21;100.00
17260;BME280;8746;49.230;9.220;2023-05-12T08:06:15;99672.88;;;13.18;100.00
17260;BME280;8746;49.230;9.220;2023-05-12T08:08:41;99680.28;;;12.95;100.00
17260;BME280;8746;49.230;9.220;2023-05-12T08:11:06;99674.38;;;12.90;100.00
17260;BME280;8746;49.230;9.220;2023-05-12T08:13:31;99667.47;;;13.03;100.00
17260;BME280;8746;49.230;9.220;2023-05-12T08:15:57;99675.34;;;13.21;100.00
17260;BME280;8746;49.230;9.220;2023-05-12T08:18:22;99679.03;;;13.18;100.00
17260;BME280;8746;49.230;9.220;2023-05-12T08:20:48;99676.63;;;13.13;100.00
17260;BME280;8746;49.230;9.220;2023-05-12T08:23:15;99676.78;;;12.94;100.00
17260;BME280;8746;49.230;9.220;2023-05-12T08:25:42;99685.28;;;12.68;100.00
17260;BME280;8746;49.230;9.220;2023-05-12T08:28:09;99682.88;;;12.63;100.00
17260;BME280;8746;49.230;9.220;2023-05-12T08:30:35;99683.19;;;12.57;100.00
17260;BME280;8746;49.230;9.220;2023-05-12T08:33:01;99687.50;;;12.42;100.00
17260;BME280;8746;49.230;9.220;2023-05-12T08:35:27;99687.78;;;12.53;100.00
17260;BME280;8746;49.230;9.220;2023-05-12T08:37:52;99692.25;;;12.69;100.00
17260;BME280;8746;49.230;9.220;2023-05-12T08:40:22;99695.22;;;12.80;100.00
17260;BME280;8746;49.230;9.220;2023-05-12T08:43:13;99683.78;;;12.95;100.00
17260;BME280;8746;49.230;9.220;2023-05-12T08:45:40;99687.31;;;13.12;100.00
17260;BME280;8746;49.230;9.220;2023-05-12T08:48:08;99690.03;;;13.10;100.00
17260;BME280;8746;49.230;9.220;2023-05-12T08:50:37;99689.25;;;13.08;100.00
17260;BME280;8746;49.230;9.220;2023-05-12T08:53:03;99690.03;;;13.10;100.00
17260;BME280;8746;49.230;9.220;2023-05-12T08:55:32;99698.69;;;13.14;100.00
17260;BME280;8746;49.230;9.220;2023-05-12T08:57:59;99690.13;;;13.25;100.00
17260;BME280;8746;49.230;9.220;2023-05-12T09:00:27;99698.03;;;13.42;100.00
17260;BME280;8746;49.230;9.220;2023-05-12T09:02:53;99693.09;;;13.35;100.00
17260;BME280;8746;49.230;9.220;2023-05-12T09:05:20;99685.00;;;13.70;100.00
17260;BME280;8746;49.230;9.220;2023-05-12T09:07:46;99692.00;;;13.71;99.79
17260;BME280;8746;49.230;9.220;2023-05-12T09:10:17;99694.16;;;13.94;98.90
17260;BME280;8746;49.230;9.220;2023-05-12T09:12:45;99693.81;;;14.01;97.06
17260;BME280;8746;49.230;9.220;2023-05-12T09:15:19;99697.31;;;14.32;96.04
17260;BME280;8746;49.230;9.220;2023-05-12T09:17:47;99693.28;;;14.10;96.20
17260;BME280;8746;49.230;9.220;2023-05-12T09:20:12;99693.78;;;13.86;94.79
17260;BME280;8746;49.230;9.220;2023-05-12T09:22:38;99697.13;;;14.20;97.55
17260;BME280;8746;49.230;9.220;2023-05-12T09:25:17;99695.97;;;14.24;94.77
17260;BME280;8746;49.230;9.220;2023-05-12T09:27:45;99701.16;;;14.56;95.43
17260;BME280;8746;49.230;9.220;2023-05-12T09:30:11;99708.56;;;14.80;92.79
17260;BME280;8746;49.230;9.220;2023-05-12T09:32:36;99693.88;;;15.03;92.63
17260;BME280;8746;49.230;9.220;2023-05-12T09:35:07;99704.97;;;14.81;89.24
17260;BME280;8746;49.230;9.220;2023-05-12T09:37:35;99698.63;;;14.84;90.11
17260;BME280;8746;49.230;9.220;2023-05-12T09:40:03;99695.34;;;14.64;91.71
17260;BME280;8746;49.230;9.220;2023-05-12T09:42:31;99699.66;;;14.81;91.79
17260;BME280;8746;49.230;9.220;2023-05-12T09:45:07;99698.44;;;14.87;90.41
17260;BME280;8746;49.230;9.220;2023-05-12T09:47:37;99692.19;;;15.44;90.25
17260;BME280;8746;49.230;9.220;2023-05-12T09:50:04;99698.22;;;15.19;86.16
17260;BME280;8746;49.230;9.220;2023-05-12T09:52:30;99700.88;;;15.19;86.34
17260;BME280;8746;49.230;9.220;2023-05-12T09:55:17;99704.97;;;15.25;85.57
17260;BME280;8746;49.230;9.220;2023-05-12T09:57:43;99693.84;;;15.32;85.98
17260;BME280;8746;49.230;9.220;2023-05-12T10:00:11;99697.81;;;15.25;86.32
17260;BME280;8746;49.230;9.220;2023-05-12T10:02:46;99688.69;;;15.71;86.97
17260;BME280;8746;49.230;9.220;2023-05-12T10:05:15;99689.47;;;15.31;86.32
17260;BME280;8746;49.230;9.220;2023-05-12T10:07:43;99695.97;;;15.40;87.67
17260;BME280;8746;49.230;9.220;2023-05-12T10:10:17;99694.75;;;15.46;86.20
17260;BME280;8746;49.230;9.220;2023-05-12T10:12:44;99693.44;;;15.38;83.92
17260;BME280;8746;49.230;9.220;2023-05-12T10:15:10;99693.53;;;15.37;83.24
17260;BME280;8746;49.230;9.220;2023-05-12T10:17:38;99690.47;;;15.43;84.15
17260;BME280;8746;49.230;9.220;2023-05-12T10:20:05;99691.66;;;15.39;82.72
17260;BME280;8746;49.230;9.220;2023-05-12T10:22:33;99680.88;;;15.82;82.43
17260;BME280;8746;49.230;9.220;2023-05-12T10:25:00;99690.88;;;15.37;79.58
17260;BME280;8746;49.230;9.220;2023-05-12T10:27:28;99685.81;;;15.05;82.40
17260;BME280;8746;49.230;9.220;2023-05-12T10:29:56;99684.38;;;15.14;80.44
17260;BME280;8746;49.230;9.220;2023-05-12T10:32:22;99682.66;;;15.54;83.79
17260;BME280;8746;49.230;9.220;2023-05-12T10:34:48;99692.50;;;15.39;83.93
17260;BME280;8746;49.230;9.220;2023-05-12T10:37:13;99683.97;;;15.62;82.96
17260;BME280;8746;49.230;9.220;2023-05-12T10:39:46;99690.59;;;15.69;82.39
17260;BME280;8746;49.230;9.220;2023-05-12T10:42:16;99688.28;;;15.77;82.95
17260;BME280;8746;49.230;9.220;2023-05-12T10:44:51;99686.56;;;15.76;83.35
17260;BME280;8746;49.230;9.220;2023-05-12T10:47:17;99686.31;;;15.66;83.02
17260;BME280;8746;49.230;9.220;2023-05-12T10:49:43;99691.25;;;15.45;82.00
17260;BME280;8746;49.230;9.220;2023-05-12T10:52:11;99685.69;;;15.63;81.09
17260;BME280;8746;49.230;9.220;2023-05-12T10:54:42;99681.81;;;15.54;79.77
17260;BME280;8746;49.230;9.220;2023-05-12T10:57:19;99698.69;;;15.26;81.80
17260;BME280;8746;49.230;9.220;2023-05-12T10:59:55;99704.53;;;14.89;84.35
17260;BME280;8746;49.230;9.220;2023-05-12T11:02:28;99700.25;;;14.72;84.89
17260;BME280;8746;49.230;9.220;2023-05-12T11:04:57;99701.53;;;14.50;85.23
17260;BME280;8746;49.230;9.220;2023-05-12T11:07:24;99699.59;;;14.68;87.69
17260;BME280;8746;49.230;9.220;2023-05-12T11:09:54;99696.34;;;14.63;85.28
17260;BME280;8746;49.230;9.220;2023-05-12T11:12:20;99693.00;;;14.45;86.44
17260;BME280;8746;49.230;9.220;2023-05-12T11:14:46;99697.41;;;14.45;87.05
17260;BME280;8746;49.230;9.220;2023-05-12T11:17:12;99699.41;;;14.41;89.57
17260;BME280;8746;49.230;9.220;2023-05-12T11:19:38;99701.28;;;14.24;88.51
17260;BME280;8746;49.230;9.220;2023-05-12T11:22:09;99695.97;;;14.24;88.77
17260;BME280;8746;49.230;9.220;2023-05-12T11:24:36;99704.09;;;14.21;89.42
17260;BME280;8746;49.230;9.220;2023-05-12T11:27:02;99702.44;;;14.35;89.39
17260;BME280;8746;49.230;9.220;2023-05-12T11:29:28;99700.72;;;14.34;88.77
17260;BME280;8746;49.230;9.220;2023-05-12T11:31:54;99698.47;;;14.42;90.93
17260;BME280;8746;49.230;9.220;2023-05-12T11:34:22;99702.97;;;14.56;88.30
17260;BME280;8746;49.230;9.220;2023-05-12T11:36:50;99716.56;;;14.66;89.13
17260;BME280;8746;49.230;9.220;2023-05-12T11:39:16;99708.00;;;14.75;89.70
17260;BME280;8746;49.230;9.220;2023-05-12T11:41:43;99707.63;;;14.67;87.95
17260;BME280;8746;49.230;9.220;2023-05-12T11:44:16;99705.13;;;14.64;86.59
17260;BME280;8746;49.230;9.220;2023-05-12T11:46:58;99707.72;;;14.80;86.51
17260;BME280;8746;49.230;9.220;2023-05-12T11:49:25;99713.16;;;14.78;87.70
17260;BME280;8746;49.230;9.220;2023-05-12T11:51:56;99711.06;;;14.98;87.23
17260;BME280;8746;49.230;9.220;2023-05-12T11:54:22;99716.97;;;15.30;87.60
17260;BME280;8746;49.230;9.220;2023-05-12T11:56:51;99701.34;;;15.67;85.32
17260;BME280;8746;49.230;9.220;2023-05-12T11:59:29;99720.66;;;15.57;87.38
17260;BME280;8746;49.230;9.220;2023-05-12T12:01:56;99716.50;;;15.52;86.72
17260;BME280;8746;49.230;9.220;2023-05-12T12:04:31;99713.28;;;15.33;87.05
17260;BME280;8746;49.230;9.220;2023-05-12T12:06:57;99726.78;;;15.01;87.48
17260;BME280;8746;49.230;9.220;2023-05-12T12:09:33;99731.53;;;14.81;89.14
17260;BME280;8746;49.230;9.220;2023-05-12T12:12:00;99730.97;;;14.76;90.22
17260;BME280;8746;49.230;9.220;2023-05-12T12:14:26;99743.41;;;14.76;90.59
17260;BME280;8746;49.230;9.220;2023-05-12T12:16:52;99738.56;;;14.82;88.78
17260;BME280;8746;49.230;9.220;2023-05-12T12:19:17;99738.09;;;14.76;86.03
17260;BME280;8746;49.230;9.220;2023-05-12T12:21:42;99747.94;;;14.73;85.71
17260;BME280;8746;49.230;9.220;2023-05-12T12:24:08;99748.66;;;14.61;84.92
17260;BME280;8746;49.230;9.220;2023-05-12T12:26:34;99746.66;;;14.65;86.47
17260;BME280;8746;49.230;9.220;2023-05-12T12:28:59;99753.28;;;14.88;86.54
17260;BME280;8746;49.230;9.220;2023-05-12T12:31:25;99753.94;;;15.06;86.62
17260;BME280;8746;49.230;9.220;2023-05-12T12:33:50;99761.53;;;15.12;85.35
17260;BME280;8746;49.230;9.220;2023-05-12T12:36:15;99758.88;;;14.98;85.00
17260;BME280;8746;49.230;9.220;2023-05-12T12:38:41;99766.19;;;14.94;86.29
17260;BME280;8746;49.230;9.220;2023-05-12T12:41:06;99765.59;;;14.89;85.63
17260;BME280;8746;49.230;9.220;2023-05-12T12:43:32;99767.59;;;15.00;86.99
17260;BME280;8746;49.230;9.220;2023-05-12T12:45:57;99764.16;;;14.69;88.82
17260;BME280;8746;49.230;9.220;2023-05-12T12:48:23;99763.97;;;14.72;89.28
17260;BME280;8746;49.230;9.220;2023-05-12T12:50:48;99760.38;;;14.73;90.22
17260;BME280;8746;49.230;9.220;2023-05-12T12:53:14;99775.84;;;14.95;90.58
17260;BME280;8746;49.230;9.220;2023-05-12T12:55:40;99766.53;;;14.73;86.11
17260;BME280;8746;49.230;9.220;2023-05-12T12:58:06;99776.59;;;14.68;88.26
17260;BME280;8746;49.230;9.220;2023-05-12T13:00:31;99765.22;;;14.50;85.96